Time;durP1;ratioP1;P1;durP2;ratioP2;P2;SDS_P1;SDS_P2;PMS_P1;PMS_P2;Temp;Humidity;BMP_temperature;BMP_pressure;BME280_temperature;BME280_humidity;BME280_pressure;Samples;Min_cycle;Max_cycle;Signal;HPM_P1;HPM_P2
2022/07/24 00:01:01;;;;;;;24.03;21.67;;;16.40;83.70;;;;;;5025366;28;20181;-59
2022/07/24 00:03:27;;;;;;;24.30;22.07;;;16.30;85.10;;;;;;5048043;28;20222;-59
2022/07/24 00:05:53;;;;;;;24.93;21.47;;;16.30;88.20;;;;;;5038705;28;20189;-60
2022/07/24 00:08:18;;;;;;;23.20;21.10;;;16.30;90.50;;;;;;5034134;28;20250;-59
2022/07/24 00:10:44;;;;;;;25.00;22.47;;;16.20;91.80;;;;;;5034798;28;20450;-58
2022/07/24 00:13:10;;;;;;;23.63;21.37;;;16.20;92.70;;;;;;5044557;28;20221;-59
2022/07/24 00:15:35;;;;;;;23.10;20.93;;;16.20;93.00;;;;;;5042380;28;20194;-59
2022/07/24 00:18:01;;;;;;;27.60;23.53;;;16.10;94.70;;;;;;5030417;28;20545;-59
2022/07/24 00:20:26;;;;;;;23.70;21.47;;;16.10;96.60;;;;;;5031923;28;20208;-59
2022/07/24 00:22:52;;;;;;;24.40;21.90;;;16.10;97.20;;;;;;5032128;28;20187;-59
2022/07/24 00:25:17;;;;;;;23.30;20.93;;;16.10;98.00;;;;;;5032597;28;20205;-59
2022/07/24 00:27:43;;;;;;;23.50;21.37;;;16.00;98.70;;;;;;5026263;28;20610;-59
2022/07/24 00:30:09;;;;;;;24.33;22.00;;;16.00;98.90;;;;;;5028568;28;20189;-60
2022/07/24 00:32:35;;;;;;;23.60;21.20;;;16.00;99.90;;;;;;5041909;28;20199;-60
2022/07/24 00:35:00;;;;;;;23.60;21.50;;;16.00;99.90;;;;;;5039413;28;20564;-59
2022/07/24 00:37:27;;;;;;;23.00;20.80;;;16.00;99.90;;;;;;5051403;28;20673;-59
2022/07/24 00:39:52;;;;;;;24.60;22.20;;;15.90;99.90;;;;;;5031255;28;20610;-59
2022/07/24 00:42:18;;;;;;;24.63;22.33;;;15.90;99.90;;;;;;5041409;28;20534;-59
2022/07/24 00:44:44;;;;;;;23.30;21.10;;;15.90;99.90;;;;;;5040509;28;20206;-59
2022/07/24 00:47:09;;;;;;;24.67;22.37;;;15.90;99.90;;;;;;5051250;28;20226;-59
2022/07/24 00:49:35;;;;;;;22.73;20.53;;;15.80;99.90;;;;;;5027919;28;20215;-58
2022/07/24 00:52:00;;;;;;;22.17;20.00;;;15.80;99.90;;;;;;5033132;28;20193;-59
2022/07/24 00:54:26;;;;;;;22.27;20.10;;;15.80;99.90;;;;;;5029707;28;20257;-58
2022/07/24 00:56:53;;;;;;;21.17;19.27;;;15.80;99.90;;;;;;5031227;28;20631;-59
2022/07/24 00:59:19;;;;;;;21.20;19.30;;;15.80;99.10;;;;;;5032148;28;20228;-59
2022/07/24 01:01:46;;;;;;;20.57;18.57;;;15.70;96.60;;;;;;5040221;28;20467;-60
2022/07/24 01:04:12;;;;;;;20.20;18.30;;;15.70;93.90;;;;;;5019308;28;20542;-60
2022/07/24 01:06:43;;;;;;;18.50;16.90;;;15.70;92.60;;;;;;5036780;28;20847;-59
2022/07/24 01:09:10;;;;;;;20.47;18.57;;;15.70;87.20;;;;;;5032188;28;20869;-60
2022/07/24 01:11:37;;;;;;;18.30;16.67;;;15.60;80.20;;;;;;5023745;28;20907;-60
2022/07/24 01:14:04;;;;;;;17.97;16.37;;;15.60;78.00;;;;;;5047093;28;20469;-59
2022/07/24 01:16:30;;;;;;;18.27;16.60;;;15.60;75.30;;;;;;5022923;28;20449;-60
2022/07/24 01:18:55;;;;;;;18.97;16.97;;;15.60;70.70;;;;;;5031353;28;20952;-59
2022/07/24 01:21:21;;;;;;;17.57;16.00;;;15.60;66.50;;;;;;5034029;28;20812;-60
2022/07/24 01:23:46;;;;;;;18.50;16.80;;;15.60;64.70;;;;;;5043149;28;20202;-60
2022/07/24 01:26:12;;;;;;;20.33;18.47;;;15.60;69.20;;;;;;5047847;28;20182;-60
2022/07/24 01:28:38;;;;;;;19.47;17.67;;;15.60;80.30;;;;;;5020152;28;20716;-60
2022/07/24 01:31:04;;;;;;;21.53;19.43;;;15.60;82.40;;;;;;5045743;28;20293;-60
2022/07/24 01:33:29;;;;;;;20.47;18.53;;;15.60;87.20;;;;;;5029982;28;20203;-59
2022/07/24 01:35:55;;;;;;;22.37;20.07;;;15.60;91.20;;;;;;5046123;28;20424;-60
2022/07/24 01:38:21;;;;;;;20.63;18.70;;;15.50;96.70;;;;;;5030132;28;20253;-59
2022/07/24 01:40:46;;;;;;;22.60;20.50;;;15.50;99.90;;;;;;5024418;28;20187;-59
2022/07/24 01:43:12;;;;;;;23.27;21.10;;;15.40;99.90;;;;;;5034305;28;20187;-59
2022/07/24 01:45:38;;;;;;;22.73;20.43;;;15.40;99.90;;;;;;5040270;28;20273;-59
2022/07/24 01:48:04;;;;;;;21.83;19.83;;;15.40;99.90;;;;;;5029643;28;20201;-60
2022/07/24 01:50:30;;;;;;;25.63;23.13;;;15.40;99.90;;;;;;5047598;28;20621;-59
2022/07/24 01:52:56;;;;;;;23.60;21.40;;;15.40;99.90;;;;;;5029466;28;20434;-60
2022/07/24 01:55:22;;;;;;;24.73;22.40;;;15.30;99.90;;;;;;5028386;28;20771;-60
2022/07/24 01:57:48;;;;;;;25.70;23.30;;;15.30;99.90;;;;;;5028678;28;20176;-60
2022/07/24 02:00:15;;;;;;;25.67;23.07;;;15.30;99.90;;;;;;5031227;28;20322;-60
2022/07/24 02:02:43;;;;;;;26.27;23.70;;;15.30;99.90;;;;;;5030549;28;20492;-60
2022/07/24 02:05:09;;;;;;;26.67;24.07;;;15.20;99.90;;;;;;5029895;28;20426;-60
2022/07/24 02:08:36;;;;;;;26.50;23.90;;;15.20;99.90;;;;;;5024727;28;20445;-59
2022/07/24 02:11:02;;;;;;;25.77;23.30;;;15.20;99.90;;;;;;5025698;28;20909;-60
2022/07/24 02:13:28;;;;;;;25.03;22.57;;;15.10;99.90;;;;;;5029330;28;20468;-60
2022/07/24 02:15:54;;;;;;;25.20;22.97;;;15.10;99.90;;;;;;5030941;28;20186;-60
2022/07/24 02:18:19;;;;;;;26.77;23.97;;;15.10;99.90;;;;;;5021188;28;20443;-60
2022/07/24 02:20:45;;;;;;;24.10;21.73;;;15.00;99.90;;;;;;5044770;28;20715;-60
2022/07/24 02:23:11;;;;;;;25.80;23.27;;;15.00;99.90;;;;;;5035699;28;20555;-60
2022/07/24 02:25:36;;;;;;;24.90;22.07;;;15.00;99.90;;;;;;5031903;28;20226;-60
2022/07/24 02:28:02;;;;;;;24.07;21.57;;;14.90;99.90;;;;;;5034945;28;20331;-60
2022/07/24 02:30:28;;;;;;;24.20;19.93;;;14.90;99.90;;;;;;5033642;28;20222;-60
2022/07/24 02:32:53;;;;;;;22.67;20.50;;;14.90;99.90;;;;;;5030715;28;20282;-60
2022/07/24 02:35:19;;;;;;;22.70;20.60;;;14.90;99.90;;;;;;5032415;28;20248;-60
2022/07/24 02:37:45;;;;;;;24.77;22.30;;;14.90;99.90;;;;;;5021616;28;20558;-59
2022/07/24 02:40:13;;;;;;;23.50;21.40;;;14.80;99.90;;;;;;5035075;28;20190;-59
2022/07/24 02:42:39;;;;;;;24.50;22.00;;;14.80;99.90;;;;;;5032862;28;20758;-60
2022/07/24 02:45:06;;;;;;;24.70;22.33;;;14.80;99.90;;;;;;5029798;28;20516;-60
2022/07/24 02:47:32;;;;;;;25.40;22.90;;;14.80;99.90;;;;;;5028112;28;20203;-60
2022/07/24 02:49:58;;;;;;;25.20;22.77;;;14.70;99.90;;;;;;5028769;28;20556;-60
2022/07/24 02:52:23;;;;;;;24.10;21.80;;;14.70;99.90;;;;;;5042334;28;20190;-59
2022/07/24 02:54:49;;;;;;;24.83;22.37;;;14.70;99.90;;;;;;5050655;28;20261;-61
2022/07/24 02:57:14;;;;;;;22.87;20.70;;;14.60;99.90;;;;;;5035482;28;20710;-61
2022/07/24 02:59:40;;;;;;;22.57;20.43;;;14.60;99.90;;;;;;5038485;28;20718;-60
2022/07/24 03:02:05;;;;;;;23.23;20.90;;;14.50;99.90;;;;;;5019332;28;20196;-61
2022/07/24 03:04:31;;;;;;;23.10;21.00;;;14.50;99.90;;;;;;5040086;28;20211;-60
2022/07/24 03:06:57;;;;;;;23.60;21.20;;;14.40;99.90;;;;;;5030400;28;20216;-60
2022/07/24 03:09:23;;;;;;;23.37;21.07;;;14.40;99.90;;;;;;5027233;28;20175;-60
2022/07/24 03:11:48;;;;;;;23.73;21.43;;;14.40;99.90;;;;;;5044358;28;20187;-60
2022/07/24 03:14:14;;;;;;;24.33;21.93;;;14.30;99.90;;;;;;5041108;28;20179;-60
2022/07/24 03:16:40;;;;;;;25.33;22.73;;;14.30;99.90;;;;;;5034330;28;20197;-58
2022/07/24 03:19:05;;;;;;;24.10;21.73;;;14.20;99.90;;;;;;5025633;28;20238;-59
2022/07/24 03:21:31;;;;;;;23.90;21.60;;;14.20;99.90;;;;;;5041907;28;20246;-60
2022/07/24 03:23:56;;;;;;;23.27;21.10;;;14.20;99.90;;;;;;5039737;28;20953;-60
2022/07/24 03:26:22;;;;;;;24.07;21.70;;;14.20;99.90;;;;;;5020654;28;20242;-60
2022/07/24 03:28:47;;;;;;;22.50;20.40;;;14.10;99.90;;;;;;5025080;28;20171;-60
2022/07/24 03:31:13;;;;;;;23.37;20.90;;;14.10;99.90;;;;;;5028520;28;20191;-60
2022/07/24 03:33:39;;;;;;;22.80;20.60;;;14.10;99.90;;;;;;5026757;28;20697;-60
2022/07/24 03:36:05;;;;;;;23.47;21.37;;;14.10;99.90;;;;;;5039747;28;20239;-60
2022/07/24 03:38:30;;;;;;;24.20;21.90;;;14.10;99.90;;;;;;5031564;28;20195;-60
2022/07/24 03:40:56;;;;;;;22.63;20.53;;;14.00;99.90;;;;;;5032403;28;20525;-60
2022/07/24 03:43:21;;;;;;;21.90;19.80;;;14.00;99.90;;;;;;5035878;28;20206;-60
2022/07/24 03:45:47;;;;;;;21.30;19.47;;;14.00;99.90;;;;;;5037307;28;20606;-60
2022/07/24 03:48:13;;;;;;;21.50;19.60;;;14.00;99.90;;;;;;5047261;28;20194;-60
2022/07/24 03:50:38;;;;;;;19.90;17.87;;;14.00;99.90;;;;;;5039570;28;20238;-58
2022/07/24 03:53:04;;;;;;;20.57;18.57;;;14.00;99.90;;;;;;5035767;28;20187;-60
2022/07/24 03:55:30;;;;;;;21.00;18.93;;;14.00;99.90;;;;;;5033434;28;20179;-60
2022/07/24 03:57:55;;;;;;;20.67;18.77;;;14.00;99.90;;;;;;5047187;28;20198;-60
2022/07/24 04:00:21;;;;;;;21.53;19.40;;;14.00;99.90;;;;;;5027162;28;20824;-61
2022/07/24 04:02:46;;;;;;;21.30;19.17;;;14.00;99.90;;;;;;5046022;28;20522;-60
2022/07/24 04:05:13;;;;;;;20.63;18.63;;;14.00;99.90;;;;;;5031032;28;20214;-60
2022/07/24 04:07:39;;;;;;;19.83;18.03;;;14.00;99.90;;;;;;5030073;28;20186;-60
2022/07/24 04:10:06;;;;;;;22.60;20.20;;;14.00;99.90;;;;;;5030577;28;20434;-60
2022/07/24 04:12:32;;;;;;;19.90;18.03;;;14.00;99.90;;;;;;5051984;28;20197;-61
2022/07/24 04:14:57;;;;;;;19.53;17.67;;;14.00;99.90;;;;;;5036965;28;20449;-60
2022/07/24 04:17:23;;;;;;;19.40;17.57;;;14.00;99.90;;;;;;5030330;28;20448;-60
2022/07/24 04:19:49;;;;;;;19.87;17.83;;;14.00;99.90;;;;;;5030588;28;20229;-61
2022/07/24 04:22:14;;;;;;;19.47;17.57;;;14.00;99.90;;;;;;5039503;28;20190;-60
2022/07/24 04:24:40;;;;;;;19.33;17.63;;;14.10;99.90;;;;;;5041036;28;20548;-60
2022/07/24 04:27:05;;;;;;;19.30;17.57;;;14.10;99.90;;;;;;5035594;28;20182;-60
2022/07/24 04:29:31;;;;;;;21.13;19.17;;;14.10;99.90;;;;;;5028275;28;20270;-60
2022/07/24 04:31:57;;;;;;;19.07;17.37;;;14.20;99.90;;;;;;5041539;28;20314;-60
2022/07/24 04:34:22;;;;;;;18.90;17.00;;;14.10;99.90;;;;;;5042214;28;20700;-61
2022/07/24 04:36:48;;;;;;;19.53;17.57;;;14.20;99.90;;;;;;5034051;28;20289;-60
2022/07/24 04:39:13;;;;;;;18.40;16.60;;;14.20;99.90;;;;;;5029452;28;20198;-60
2022/07/24 04:41:40;;;;;;;19.77;17.77;;;14.20;99.90;;;;;;5033182;28;20201;-61
2022/07/24 04:44:05;;;;;;;18.53;16.80;;;14.30;99.90;;;;;;5048963;28;20729;-61
2022/07/24 04:46:31;;;;;;;19.47;17.67;;;14.30;99.90;;;;;;5045742;28;20482;-61
2022/07/24 04:48:56;;;;;;;18.90;17.20;;;14.40;99.90;;;;;;5026746;28;20195;-61
2022/07/24 04:51:22;;;;;;;20.17;18.37;;;14.40;99.90;;;;;;5031270;28;20199;-61
2022/07/24 04:53:48;;;;;;;19.10;17.23;;;14.40;99.90;;;;;;5039966;28;20190;-61
2022/07/24 04:56:14;;;;;;;19.80;17.90;;;14.40;99.90;;;;;;5051063;28;20251;-61
2022/07/24 04:58:39;;;;;;;18.90;17.00;;;14.50;99.90;;;;;;5031174;28;20226;-59
2022/07/24 05:01:05;;;;;;;19.03;17.23;;;14.50;99.90;;;;;;5035446;28;20480;-60
2022/07/24 05:03:30;;;;;;;19.17;17.27;;;14.60;99.90;;;;;;5029734;28;20203;-60
2022/07/24 05:05:56;;;;;;;18.87;17.07;;;14.60;99.90;;;;;;5033640;28;20520;-59
2022/07/24 05:08:22;;;;;;;18.17;16.27;;;14.60;99.90;;;;;;5035480;28;20215;-58
2022/07/24 05:10:48;;;;;;;18.63;16.73;;;14.70;99.90;;;;;;5027544;28;20202;-60
2022/07/24 05:13:13;;;;;;;18.00;16.40;;;14.70;99.90;;;;;;5039027;28;20919;-60
2022/07/24 05:15:39;;;;;;;18.73;17.03;;;14.80;99.30;;;;;;5030272;28;20209;-60
2022/07/24 05:18:04;;;;;;;17.37;15.87;;;14.90;97.00;;;;;;5038637;28;20229;-60
2022/07/24 05:20:30;;;;;;;17.70;16.00;;;14.90;94.70;;;;;;5049027;28;20178;-59
2022/07/24 05:22:56;;;;;;;17.70;16.10;;;15.10;92.80;;;;;;5036137;28;20190;-61
2022/07/24 05:25:21;;;;;;;17.80;16.10;;;15.10;87.70;;;;;;5043118;28;20235;-59
2022/07/24 05:27:47;;;;;;;17.13;15.63;;;15.20;80.50;;;;;;5026001;28;20805;-60
2022/07/24 05:30:13;;;;;;;16.50;15.03;;;15.30;64.90;;;;;;5023847;28;20545;-60
2022/07/24 05:32:38;;;;;;;16.90;15.40;;;15.30;65.30;;;;;;5036484;28;20178;-60
2022/07/24 05:35:04;;;;;;;16.93;15.33;;;15.40;57.30;;;;;;5046891;28;20962;-60
2022/07/24 05:37:30;;;;;;;16.93;15.33;;;15.50;48.00;;;;;;5029467;28;20191;-59
2022/07/24 05:39:56;;;;;;;16.87;15.23;;;15.50;37.30;;;;;;5030462;28;20441;-60
2022/07/24 05:42:21;;;;;;;16.30;14.70;;;15.60;32.80;;;;;;5039048;28;20190;-60
2022/07/24 05:44:47;;;;;;;15.63;14.23;;;15.70;32.90;;;;;;5031706;28;20205;-60
2022/07/24 05:47:12;;;;;;;16.43;14.93;;;15.70;35.00;;;;;;5023950;28;20924;-61
2022/07/24 05:49:38;;;;;;;15.30;13.90;;;15.90;24.90;;;;;;5023911;28;20543;-61
2022/07/24 05:52:04;;;;;;;15.23;13.70;;;15.90;24.30;;;;;;5029808;28;20258;-61
2022/07/24 05:54:29;;;;;;;15.10;13.60;;;15.90;9.10;;;;;;5046756;28;20190;-61
2022/07/24 05:56:55;;;;;;;14.83;13.53;;;16.00;5.60;;;;;;5027729;28;20439;-61
2022/07/24 05:59:21;;;;;;;14.13;12.93;;;16.20;1.00;;;;;;5025808;28;20792;-61
2022/07/24 06:01:46;;;;;;;16.63;14.27;;;16.20;1.00;;;;;;5025986;28;20631;-60
2022/07/24 06:04:12;;;;;;;15.23;13.73;;;16.30;1.00;;;;;;5017220;28;20208;-60
2022/07/24 06:06:37;;;;;;;14.90;13.60;;;16.40;1.00;;;;;;5014252;28;20182;-60
2022/07/24 06:09:04;;;;;;;15.00;13.70;;;16.60;1.00;;;;;;5017308;28;20185;-60
2022/07/24 06:11:29;;;;;;;14.90;13.50;;;16.60;1.00;;;;;;5021341;28;20778;-60
2022/07/24 06:13:55;;;;;;;14.70;13.40;;;16.60;1.00;;;;;;5026303;28;20446;-60
2022/07/24 06:16:21;;;;;;;13.60;12.40;;;16.70;1.00;;;;;;5028450;28;20196;-61
2022/07/24 06:18:47;;;;;;;13.00;11.80;;;16.70;1.00;;;;;;5029532;28;20443;-60
2022/07/24 06:21:12;;;;;;;13.53;12.23;;;16.80;1.00;;;;;;5032223;28;20189;-60
2022/07/24 06:23:38;;;;;;;13.87;12.67;;;16.90;1.00;;;;;;5027320;28;20204;-59
2022/07/24 06:26:04;;;;;;;14.47;13.17;;;16.90;1.00;;;;;;5033787;28;20177;-61
2022/07/24 06:28:29;;;;;;;14.00;12.80;;;17.10;1.00;;;;;;5027038;28;20262;-60
2022/07/24 06:30:55;;;;;;;14.80;13.40;;;17.20;1.00;;;;;;5032878;28;20478;-60
2022/07/24 06:33:21;;;;;;;13.80;12.60;;;17.30;1.00;;;;;;5040039;28;20192;-61
2022/07/24 06:35:47;;;;;;;13.77;12.67;;;17.40;1.00;;;;;;5043316;28;20252;-60
2022/07/24 06:38:12;;;;;;;13.83;12.73;;;17.50;1.00;;;;;;5026873;28;20235;-60
2022/07/24 06:40:38;;;;;;;13.50;12.40;;;17.60;1.00;;;;;;5023277;28;20233;-60
2022/07/24 06:43:04;;;;;;;13.10;12.00;;;17.70;1.00;;;;;;5026900;28;20658;-56
2022/07/24 06:45:33;;;;;;;12.87;11.70;;;17.80;1.00;;;;;;5027653;28;20544;-55
2022/07/24 06:48:03;;;;;;;14.20;12.90;;;17.90;1.00;;;;;;5029044;28;20911;-60
2022/07/24 06:50:29;;;;;;;13.50;12.30;;;18.00;1.00;;;;;;5041786;28;20466;-60
2022/07/24 06:52:55;;;;;;;13.07;11.97;;;18.10;99.90;;;;;;5028591;28;20476;-60
2022/07/24 06:55:21;;;;;;;12.87;11.77;;;18.20;99.90;;;;;;5024695;28;20495;-60
2022/07/24 06:57:47;;;;;;;12.43;11.53;;;18.30;99.90;;;;;;5021832;28;20190;-60
2022/07/24 07:00:13;;;;;;;12.50;11.40;;;18.50;99.90;;;;;;5028999;28;20913;-60
2022/07/24 07:02:39;;;;;;;12.23;11.33;;;18.70;1.00;;;;;;5039360;28;20277;-59
2022/07/24 07:05:06;;;;;;;12.13;11.13;;;18.80;1.00;;;;;;5034568;28;20519;-60
2022/07/24 07:07:32;;;;;;;11.60;10.70;;;18.80;1.00;;;;;;5032764;28;20474;-60
2022/07/24 07:09:57;;;;;;;11.13;9.90;;;19.00;1.00;;;;;;5019091;28;20473;-61
2022/07/24 07:12:23;;;;;;;11.20;10.30;;;19.10;1.00;;;;;;5038430;28;20261;-59
2022/07/24 07:14:48;;;;;;;10.50;9.80;;;19.20;1.00;;;;;;5043523;28;20221;-60
2022/07/24 07:17:15;;;;;;;13.33;12.27;;;19.30;99.90;;;;;;5035875;28;20199;-60
2022/07/24 07:19:42;;;;;;;11.43;10.33;;;19.40;99.90;;;;;;5032959;28;20187;-61
2022/07/24 07:22:08;;;;;;;9.53;8.70;;;19.50;99.90;;;;;;5030140;28;21323;-60
2022/07/24 07:24:33;;;;;;;8.10;7.50;;;19.70;1.00;;;;;;5034091;28;20469;-60
2022/07/24 07:26:59;;;;;;;7.53;6.87;;;19.80;5.40;;;;;;5031447;28;20183;-60
2022/07/24 07:29:25;;;;;;;7.73;7.23;;;19.80;1.00;;;;;;5032060;28;20573;-59
2022/07/24 07:31:50;;;;;;;8.10;7.50;;;20.00;99.90;;;;;;5035352;28;20183;-60
2022/07/24 07:34:16;;;;;;;8.27;7.67;;;20.10;99.90;;;;;;5031515;28;20199;-59
2022/07/24 07:36:41;;;;;;;7.33;6.83;;;20.20;99.90;;;;;;5030971;28;20199;-59
2022/07/24 07:39:07;;;;;;;6.17;5.80;;;20.40;61.10;;;;;;5034782;28;20190;-60
2022/07/24 07:41:33;;;;;;;7.00;6.40;;;20.50;1.00;;;;;;5029076;28;20207;-59
2022/07/24 07:43:59;;;;;;;6.40;6.00;;;20.60;1.00;;;;;;5024096;28;20239;-59
2022/07/24 07:46:25;;;;;;;7.30;6.90;;;20.70;1.00;;;;;;5025574;28;20264;-59
2022/07/24 07:48:51;;;;;;;6.13;5.47;;;20.80;1.00;;;;;;5043738;28;20175;-60
2022/07/24 07:51:17;;;;;;;5.83;5.43;;;20.90;1.00;;;;;;5035616;28;20424;-61
2022/07/24 07:53:42;;;;;;;5.90;5.50;;;21.20;1.00;;;;;;5038010;28;20444;-61
2022/07/24 07:56:08;;;;;;;5.80;5.40;;;21.30;1.00;;;;;;5030126;28;20328;-61
2022/07/24 07:58:34;;;;;;;6.23;5.73;;;21.40;99.90;;;;;;5030135;28;20236;-61
2022/07/24 08:01:00;;;;;;;5.93;5.53;;;21.40;99.90;;;;;;5024256;28;20188;-60
2022/07/24 08:03:25;;;;;;;5.97;5.60;;;21.50;99.90;;;;;;5031232;28;20468;-61
2022/07/24 08:05:51;;;;;;;5.60;5.30;;;21.70;99.90;;;;;;5026059;28;20325;-61
2022/07/24 08:08:17;;;;;;;6.13;5.73;;;21.80;99.90;;;;;;5031923;28;20233;-61
2022/07/24 08:10:42;;;;;;;6.27;5.77;;;21.90;99.90;;;;;;5036846;28;20548;-60
2022/07/24 08:13:08;;;;;;;6.43;5.93;;;22.00;1.00;;;;;;5027625;28;20228;-61
2022/07/24 08:15:34;;;;;;;6.33;5.80;;;22.20;99.90;;;;;;5032443;28;20225;-61
2022/07/24 08:17:59;;;;;;;6.47;6.07;;;22.30;99.90;;;;;;5033057;28;20197;-60
2022/07/24 08:20:26;;;;;;;6.30;5.90;;;22.50;99.90;;;;;;5033382;28;20194;-61
2022/07/24 08:22:52;;;;;;;6.27;5.90;;;22.60;99.90;;;;;;5029316;28;20663;-61
2022/07/24 08:25:18;;;;;;;7.60;7.07;;;22.80;99.90;;;;;;5034642;28;20459;-61
2022/07/24 08:27:44;;;;;;;6.60;6.20;;;23.10;99.90;;;;;;5034976;28;20436;-62
2022/07/24 08:30:10;;;;;;;6.40;5.93;;;23.20;99.90;;;;;;5029877;28;20440;-62
2022/07/24 08:32:36;;;;;;;6.63;6.23;;;23.40;1.00;;;;;;5028008;28;20555;-61
2022/07/24 08:35:02;;;;;;;6.03;5.73;;;23.50;99.90;;;;;;5030267;28;20190;-61
2022/07/24 08:37:28;;;;;;;6.77;6.17;;;23.70;99.90;;;;;;5037534;28;20532;-59
2022/07/24 08:39:54;;;;;;;6.10;5.80;;;23.90;99.90;;;;;;5039633;28;20495;-59
2022/07/24 08:42:20;;;;;;;5.87;5.57;;;24.10;99.90;;;;;;5030901;28;20916;-60
2022/07/24 08:44:47;;;;;;;6.10;5.80;;;24.20;99.90;;;;;;5031230;28;20558;-61
2022/07/24 08:47:14;;;;;;;6.47;6.10;;;24.30;99.90;;;;;;5028487;28;20437;-60
2022/07/24 08:49:41;;;;;;;6.47;6.07;;;24.40;99.90;;;;;;5030928;28;20427;-59
2022/07/24 08:52:08;;;;;;;6.80;6.30;;;24.60;1.00;;;;;;5019053;28;20797;-60
2022/07/24 08:54:35;;;;;;;6.90;6.50;;;24.70;1.00;;;;;;5022288;28;20451;-61
2022/07/24 08:57:00;;;;;;;6.40;6.00;;;24.80;99.90;;;;;;5021804;28;20439;-60
2022/07/24 08:59:26;;;;;;;6.33;5.93;;;25.00;99.90;;;;;;5023404;28;20471;-60
2022/07/24 09:01:52;;;;;;;7.00;6.60;;;25.10;99.90;;;;;;5022835;28;20187;-61
2022/07/24 09:04:38;;;;;;;6.73;6.33;;;25.20;99.90;;;;;;5018089;28;20977;-60
2022/07/24 09:07:07;;;;;;;6.63;6.23;;;25.10;99.90;;;;;;5027456;28;20454;-60
2022/07/24 09:09:33;;;;;;;6.10;5.60;;;25.10;99.90;;;;;;5026378;28;20819;-59
2022/07/24 09:12:15;;;;;;;6.37;5.97;;;25.10;99.90;;;;;;5026894;28;20500;-60
2022/07/24 09:14:46;;;;;;;6.37;5.97;;;25.10;99.90;;;;;;5015767;28;20437;-61
2022/07/24 09:17:15;;;;;;;6.57;6.17;;;25.20;99.90;;;;;;5017078;28;20442;-61
2022/07/24 09:19:55;;;;;;;6.17;5.87;;;25.30;99.90;;;;;;5013293;28;20827;-61
2022/07/24 09:22:39;;;;;;;6.20;5.80;;;25.40;99.90;;;;;;5013816;28;20525;-61
2022/07/24 09:25:07;;;;;;;6.50;6.10;;;25.60;99.90;;;;;;5015900;28;20472;-62
2022/07/24 09:27:39;;;;;;;6.60;6.20;;;25.70;99.90;;;;;;5017202;28;21219;-62
2022/07/24 09:30:06;;;;;;;6.73;6.33;;;25.90;99.90;;;;;;5012715;28;20425;-61
2022/07/24 09:32:32;;;;;;;6.60;6.20;;;26.00;99.90;;;;;;5013183;28;20509;-62
2022/07/24 09:34:59;;;;;;;6.70;6.30;;;26.00;99.90;;;;;;5013526;28;20442;-61
2022/07/24 09:37:27;;;;;;;6.83;6.27;;;26.20;99.90;;;;;;5012095;28;20568;-62
2022/07/24 09:40:04;;;;;;;6.47;5.97;;;26.00;99.90;;;;;;5013359;28;20448;-61
2022/07/24 09:42:30;;;;;;;6.17;5.87;;;26.10;99.90;;;;;;5013284;28;20777;-61
2022/07/24 09:44:59;;;;;;;6.33;6.03;;;26.20;99.90;;;;;;5016160;28;20567;-61
2022/07/24 09:47:29;;;;;;;6.13;5.67;;;26.40;99.90;;;;;;5027060;28;20459;-60
2022/07/24 09:50:10;;;;;;;6.30;6.00;;;26.60;99.90;;;;;;5023311;28;20478;-61
2022/07/24 09:52:37;;;;;;;6.60;6.00;;;26.90;99.90;;;;;;5031076;28;20416;-61
2022/07/24 09:55:03;;;;;;;6.33;6.00;;;27.00;99.90;;;;;;5031733;28;20450;-61
2022/07/24 09:57:30;;;;;;;6.17;5.87;;;27.00;99.90;;;;;;5032365;28;20518;-61
2022/07/24 10:00:01;;;;;;;6.20;5.90;;;27.10;99.90;;;;;;5030795;28;20562;-61
2022/07/24 10:02:32;;;;;;;6.60;6.10;;;27.30;99.90;;;;;;5024897;28;20424;-61
2022/07/24 10:05:00;;;;;;;6.40;6.10;;;27.40;99.90;;;;;;5030762;28;20472;-61
2022/07/24 10:07:27;;;;;;;6.43;6.03;;;27.50;99.90;;;;;;5028863;28;20491;-61
2022/07/24 10:09:55;;;;;;;6.80;6.30;;;27.70;99.90;;;;;;5021010;28;20452;-61
2022/07/24 10:12:26;;;;;;;6.07;5.67;;;27.80;99.90;;;;;;5023781;28;20533;-61
2022/07/24 10:14:56;;;;;;;6.13;5.83;;;27.90;99.90;;;;;;5029654;28;20457;-61
2022/07/24 10:17:36;;;;;;;5.87;5.57;;;28.00;99.90;;;;;;5031247;28;20437;-61
2022/07/24 10:20:05;;;;;;;6.37;5.97;;;28.20;99.90;;;;;;5030089;28;20438;-61
2022/07/24 10:22:44;;;;;;;6.57;5.97;;;28.20;99.90;;;;;;5024397;28;20441;-61
2022/07/24 10:25:15;;;;;;;6.07;5.67;;;28.10;99.90;;;;;;5032964;28;20587;-61
2022/07/24 10:27:43;;;;;;;6.10;5.80;;;28.00;99.90;;;;;;5027425;28;20452;-61
2022/07/24 10:30:10;;;;;;;6.10;5.70;;;28.00;99.90;;;;;;5020140;28;20626;-61
2022/07/24 10:32:38;;;;;;;5.47;5.17;;;27.90;99.90;;;;;;5029101;28;20445;-61
2022/07/24 10:35:17;;;;;;;5.77;5.47;;;27.80;99.90;;;;;;5037524;28;20532;-61
2022/07/24 10:37:59;;;;;;;6.23;5.83;;;28.00;99.90;;;;;;5028728;28;20457;-61
2022/07/24 10:40:42;;;;;;;5.50;5.20;;;28.10;99.90;;;;;;5026950;28;20460;-61
2022/07/24 10:43:10;;;;;;;6.03;5.73;;;28.30;99.90;;;;;;5025772;28;20418;-61
2022/07/24 10:45:55;;;;;;;5.60;5.27;;;28.50;99.90;;;;;;5032284;28;20436;-61
2022/07/24 10:48:21;;;;;;;6.17;5.87;;;28.80;99.90;;;;;;5022947;28;21140;-61
2022/07/24 10:51:07;;;;;;;6.47;6.00;;;29.10;99.90;;;;;;5010679;28;20453;-60
2022/07/24 10:53:43;;;;;;;6.50;6.17;;;29.30;99.90;;;;;;5010814;28;20688;-61
2022/07/24 10:56:15;;;;;;;6.40;6.00;;;29.60;99.90;;;;;;5020043;28;20451;-62
2022/07/24 10:59:01;;;;;;;6.77;6.37;;;29.80;99.90;;;;;;5019102;28;20504;-61
2022/07/24 11:01:47;;;;;;;6.10;5.80;;;30.00;99.90;;;;;;5024095;28;20463;-61
2022/07/24 11:04:22;;;;;;;6.20;5.80;;;29.90;99.90;;;;;;5034146;28;20978;-61
2022/07/24 11:07:07;;;;;;;6.40;5.90;;;29.80;99.90;;;;;;5029786;28;20441;-61
2022/07/24 11:09:53;;;;;;;5.87;5.57;;;29.80;99.90;;;;;;5028504;28;20452;-61
2022/07/24 11:12:29;;;;;;;6.33;6.03;;;29.60;99.90;;;;;;5034443;28;20461;-61
2022/07/24 11:17:48;;;;;;;6.53;6.13;;;29.80;99.90;;;;;;5021760;28;20486;-61
2022/07/24 11:20:22;;;;;;;6.13;5.73;;;30.10;99.90;;;;;;5025818;28;20435;-61
2022/07/24 11:22:54;;;;;;;6.50;6.00;;;30.30;99.90;;;;;;5025917;28;20468;-61
2022/07/24 11:25:25;;;;;;;6.50;6.10;;;30.50;99.90;;;;;;5030211;28;20885;-61
2022/07/24 11:27:58;;;;;;;6.73;6.43;;;30.70;99.90;;;;;;5026804;28;20463;-62
2022/07/24 11:30:30;;;;;;;6.50;6.10;;;30.80;99.90;;;;;;5021758;28;21329;-61
2022/07/24 11:32:57;;;;;;;6.20;5.90;;;31.00;99.90;;;;;;5028747;28;20463;-61
2022/07/24 11:35:37;;;;;;;5.97;5.67;;;31.20;99.90;;;;;;5030815;28;20432;-62
2022/07/24 11:38:05;;;;;;;5.15;4.80;;;31.30;99.90;;;;;;5031312;28;20431;-61
2022/07/24 11:40:31;;;;;;;6.00;5.70;;;31.60;99.90;;;;;;5034934;28;20186;-61
2022/07/24 11:43:02;;;;;;;5.77;5.47;;;31.60;99.90;;;;;;5033857;28;20456;-61
2022/07/24 11:45:28;;;;;;;6.50;6.10;;;31.70;99.90;;;;;;5035043;28;20460;-61
2022/07/24 11:47:55;;;;;;;5.70;5.30;;;31.70;99.90;;;;;;5025604;28;20491;-61
2022/07/24 11:50:25;;;;;;;6.10;5.80;;;31.80;99.90;;;;;;5027161;28;20202;-61
2022/07/24 11:52:51;;;;;;;6.00;5.70;;;32.00;99.90;;;;;;5028743;28;20486;-62
2022/07/24 11:55:22;;;;;;;6.83;6.43;;;32.00;99.90;;;;;;5026116;28;20437;-60
2022/07/24 11:57:53;;;;;;;6.83;6.43;;;32.20;99.90;;;;;;5034625;28;20484;-61
2022/07/24 12:00:25;;;;;;;6.10;5.80;;;32.20;99.90;;;;;;5026673;28;20595;-61
2022/07/24 12:02:56;;;;;;;6.30;6.00;;;32.30;99.90;;;;;;5030572;28;20430;-60
2022/07/24 12:05:27;;;;;;;5.90;5.60;;;32.30;99.90;;;;;;5030547;28;20497;-60
2022/07/24 12:07:56;;;;;;;6.53;6.23;;;32.40;99.90;;;;;;5038039;28;20935;-61
2022/07/24 12:10:22;;;;;;;6.77;6.47;;;32.60;99.90;;;;;;5027462;28;20429;-62
2022/07/24 12:12:50;;;;;;;6.13;5.83;;;32.50;99.90;;;;;;5026965;28;20803;-61
2022/07/24 12:15:16;;;;;;;5.90;5.60;;;32.40;99.90;;;;;;5028868;28;20449;-61
2022/07/24 12:18:01;;;;;;;6.27;5.87;;;32.20;99.90;;;;;;5027912;28;20829;-60
2022/07/24 12:20:38;;;;;;;6.90;6.50;;;32.40;99.90;;;;;;5026934;28;20927;-60
2022/07/24 12:23:15;;;;;;;6.10;5.80;;;32.60;99.90;;;;;;5028124;28;20970;-61
2022/07/24 12:25:43;;;;;;;5.63;5.33;;;32.80;99.90;;;;;;5026422;28;20444;-61
2022/07/24 12:28:13;;;;;;;6.80;6.40;;;33.00;99.90;;;;;;5033668;28;20451;-61
2022/07/24 12:30:41;;;;;;;5.87;5.57;;;32.90;99.90;;;;;;5031068;28;20447;-61
2022/07/24 12:33:29;;;;;;;6.40;6.10;;;32.80;99.90;;;;;;5038003;28;20461;-60
2022/07/24 12:36:11;;;;;;;6.60;6.23;;;32.80;99.90;;;;;;5026619;28;20417;-61
2022/07/24 12:38:49;;;;;;;6.57;6.20;;;32.90;99.90;;;;;;5042495;28;20922;-61
2022/07/24 12:41:17;;;;;;;6.03;5.73;;;33.10;99.90;;;;;;5027702;28;20915;-58